sensor_id;sensor_type;location;lat;lon;timestamp;P1;durP1;ratioP1;P2;durP2;ratioP2
75941;SDS011;64622;46.220;19.878;2022-12-24T00:00:08;97.10;;;54.13;;
75941;SDS011;64622;46.220;19.878;2022-12-24T00:02:36;84.37;;;50.20;;
75941;SDS011;64622;46.220;19.878;2022-12-24T00:05:02;86.45;;;49.15;;
75941;SDS011;64622;46.220;19.878;2022-12-24T00:07:29;86.22;;;47.72;;
75941;SDS011;64622;46.220;19.878;2022-12-24T00:09:58;89.95;;;50.88;;
75941;SDS011;64622;46.220;19.878;2022-12-24T00:12:25;86.63;;;48.60;;
75941;SDS011;64622;46.220;19.878;2022-12-24T00:14:52;78.95;;;46.80;;
75941;SDS011;64622;46.220;19.878;2022-12-24T00:17:19;86.32;;;48.75;;
75941;SDS011;64622;46.220;19.878;2022-12-24T00:19:46;84.60;;;46.95;;
75941;SDS011;64622;46.220;19.878;2022-12-24T00:22:12;84.05;;;49.10;;
75941;SDS011;64622;46.220;19.878;2022-12-24T00:24:40;87.13;;;48.60;;
75941;SDS011;64622;46.220;19.878;2022-12-24T00:27:06;83.30;;;47.38;;
75941;SDS011;64622;46.220;19.878;2022-12-24T00:29:33;86.45;;;48.08;;
75941;SDS011;64622;46.220;19.878;2022-12-24T00:32:00;82.78;;;47.25;;
75941;SDS011;64622;46.220;19.878;2022-12-24T00:34:27;79.47;;;47.58;;
75941;SDS011;64622;46.220;19.878;2022-12-24T00:36:53;74.37;;;44.23;;
75941;SDS011;64622;46.220;19.878;2022-12-24T00:39:20;79.62;;;46.08;;
75941;SDS011;64622;46.220;19.878;2022-12-24T00:41:46;79.10;;;45.95;;
75941;SDS011;64622;46.220;19.878;2022-12-24T00:44:13;76.82;;;45.50;;
75941;SDS011;64622;46.220;19.878;2022-12-24T00:46:40;75.87;;;43.60;;
75941;SDS011;64622;46.220;19.878;2022-12-24T00:49:07;75.87;;;43.53;;
75941;SDS011;64622;46.220;19.878;2022-12-24T00:51:36;77.45;;;43.65;;
75941;SDS011;64622;46.220;19.878;2022-12-24T00:54:05;76.65;;;43.30;;
75941;SDS011;64622;46.220;19.878;2022-12-24T00:56:31;76.25;;;42.97;;
75941;SDS011;64622;46.220;19.878;2022-12-24T00:58:59;70.60;;;41.40;;
75941;SDS011;64622;46.220;19.878;2022-12-24T01:01:26;74.83;;;42.37;;
75941;SDS011;64622;46.220;19.878;2022-12-24T01:03:53;69.60;;;40.72;;
75941;SDS011;64622;46.220;19.878;2022-12-24T01:06:39;68.80;;;39.65;;
75941;SDS011;64622;46.220;19.878;2022-12-24T01:09:06;69.35;;;40.97;;
75941;SDS011;64622;46.220;19.878;2022-12-24T01:11:33;73.53;;;41.08;;
75941;SDS011;64622;46.220;19.878;2022-12-24T01:13:59;69.27;;;39.73;;
75941;SDS011;64622;46.220;19.878;2022-12-24T01:16:26;72.62;;;40.17;;
75941;SDS011;64622;46.220;19.878;2022-12-24T01:18:53;66.95;;;40.20;;
75941;SDS011;64622;46.220;19.878;2022-12-24T01:21:20;68.12;;;40.40;;
75941;SDS011;64622;46.220;19.878;2022-12-24T01:23:47;69.35;;;39.97;;
75941;SDS011;64622;46.220;19.878;2022-12-24T01:26:14;68.80;;;39.70;;
75941;SDS011;64622;46.220;19.878;2022-12-24T01:28:41;69.68;;;41.65;;
75941;SDS011;64622;46.220;19.878;2022-12-24T01:31:15;68.35;;;39.47;;
75941;SDS011;64622;46.220;19.878;2022-12-24T01:33:44;67.25;;;39.85;;
75941;SDS011;64622;46.220;19.878;2022-12-24T01:36:12;69.85;;;40.38;;
75941;SDS011;64622;46.220;19.878;2022-12-24T01:38:39;77.80;;;42.40;;
75941;SDS011;64622;46.220;19.878;2022-12-24T01:41:06;71.45;;;41.58;;
75941;SDS011;64622;46.220;19.878;2022-12-24T01:43:51;69.18;;;40.17;;
75941;SDS011;64622;46.220;19.878;2022-12-24T01:48:55;67.85;;;39.67;;
75941;SDS011;64622;46.220;19.878;2022-12-24T01:51:33;67.27;;;39.13;;
75941;SDS011;64622;46.220;19.878;2022-12-24T01:54:07;71.80;;;40.45;;
75941;SDS011;64622;46.220;19.878;2022-12-24T01:56:39;72.18;;;40.83;;
75941;SDS011;64622;46.220;19.878;2022-12-24T01:59:11;72.95;;;38.90;;
75941;SDS011;64622;46.220;19.878;2022-12-24T02:01:40;69.50;;;39.55;;
75941;SDS011;64622;46.220;19.878;2022-12-24T02:04:11;67.57;;;38.07;;
75941;SDS011;64622;46.220;19.878;2022-12-24T02:06:47;68.78;;;38.00;;
75941;SDS011;64622;46.220;19.878;2022-12-24T02:09:14;69.65;;;38.47;;
75941;SDS011;64622;46.220;19.878;2022-12-24T02:11:40;68.87;;;39.95;;
75941;SDS011;64622;46.220;19.878;2022-12-24T02:14:10;62.78;;;37.42;;
75941;SDS011;64622;46.220;19.878;2022-12-24T02:16:57;68.27;;;38.20;;
75941;SDS011;64622;46.220;19.878;2022-12-24T02:25:27;68.68;;;37.22;;
75941;SDS011;64622;46.220;19.878;2022-12-24T02:31:02;65.83;;;37.07;;
75941;SDS011;64622;46.220;19.878;2022-12-24T02:33:43;62.97;;;34.17;;
75941;SDS011;64622;46.220;19.878;2022-12-24T02:38:49;64.40;;;36.55;;
75941;SDS011;64622;46.220;19.878;2022-12-24T02:41:22;59.83;;;35.63;;
75941;SDS011;64622;46.220;19.878;2022-12-24T02:43:52;62.50;;;35.53;;
75941;SDS011;64622;46.220;19.878;2022-12-24T02:46:25;67.12;;;37.45;;
75941;SDS011;64622;46.220;19.878;2022-12-24T02:48:56;60.85;;;36.03;;
75941;SDS011;64622;46.220;19.878;2022-12-24T02:51:25;64.20;;;36.40;;
75941;SDS011;64622;46.220;19.878;2022-12-24T02:53:51;65.87;;;37.83;;
75941;SDS011;64622;46.220;19.878;2022-12-24T03:07:34;61.45;;;36.45;;
75941;SDS011;64622;46.220;19.878;2022-12-24T03:10:17;63.53;;;37.23;;
75941;SDS011;64622;46.220;19.878;2022-12-24T03:12:57;59.40;;;34.80;;
75941;SDS011;64622;46.220;19.878;2022-12-24T03:15:29;61.45;;;35.22;;
75941;SDS011;64622;46.220;19.878;2022-12-24T03:17:59;59.70;;;34.85;;
75941;SDS011;64622;46.220;19.878;2022-12-24T03:20:34;61.70;;;35.08;;
75941;SDS011;64622;46.220;19.878;2022-12-24T03:23:05;61.70;;;35.53;;
75941;SDS011;64622;46.220;19.878;2022-12-24T03:25:32;59.20;;;35.80;;
75941;SDS011;64622;46.220;19.878;2022-12-24T03:28:04;63.83;;;36.45;;
75941;SDS011;64622;46.220;19.878;2022-12-24T03:30:32;63.13;;;34.75;;
75941;SDS011;64622;46.220;19.878;2022-12-24T03:32:59;67.22;;;36.53;;
75941;SDS011;64622;46.220;19.878;2022-12-24T03:35:26;59.77;;;34.03;;
75941;SDS011;64622;46.220;19.878;2022-12-24T03:37:53;63.83;;;36.42;;
75941;SDS011;64622;46.220;19.878;2022-12-24T03:40:20;60.53;;;35.53;;
75941;SDS011;64622;46.220;19.878;2022-12-24T03:42:46;63.40;;;36.53;;
75941;SDS011;64622;46.220;19.878;2022-12-24T03:45:14;61.42;;;35.30;;
75941;SDS011;64622;46.220;19.878;2022-12-24T03:47:40;58.20;;;36.57;;
75941;SDS011;64622;46.220;19.878;2022-12-24T03:50:08;59.10;;;35.25;;
75941;SDS011;64622;46.220;19.878;2022-12-24T03:52:35;59.80;;;33.47;;
75941;SDS011;64622;46.220;19.878;2022-12-24T03:55:02;56.47;;;32.92;;
75941;SDS011;64622;46.220;19.878;2022-12-24T03:57:29;56.63;;;33.85;;
75941;SDS011;64622;46.220;19.878;2022-12-24T03:59:56;52.60;;;29.07;;
75941;SDS011;64622;46.220;19.878;2022-12-24T04:02:22;49.60;;;29.40;;
75941;SDS011;64622;46.220;19.878;2022-12-24T04:04:49;54.45;;;30.83;;
75941;SDS011;64622;46.220;19.878;2022-12-24T04:07:16;51.53;;;28.42;;
75941;SDS011;64622;46.220;19.878;2022-12-24T04:09:45;47.62;;;28.73;;
75941;SDS011;64622;46.220;19.878;2022-12-24T04:12:12;49.03;;;29.77;;
75941;SDS011;64622;46.220;19.878;2022-12-24T04:14:39;47.50;;;28.55;;
75941;SDS011;64622;46.220;19.878;2022-12-24T04:17:05;50.28;;;29.35;;
75941;SDS011;64622;46.220;19.878;2022-12-24T04:19:32;44.22;;;26.83;;
75941;SDS011;64622;46.220;19.878;2022-12-24T04:21:59;48.58;;;26.80;;
75941;SDS011;64622;46.220;19.878;2022-12-24T04:24:25;49.03;;;28.33;;
75941;SDS011;64622;46.220;19.878;2022-12-24T04:26:52;47.67;;;27.45;;
75941;SDS011;64622;46.220;19.878;2022-12-24T04:29:19;48.90;;;26.77;;
75941;SDS011;64622;46.220;19.878;2022-12-24T04:31:45;45.92;;;26.92;;
75941;SDS011;64622;46.220;19.878;2022-12-24T04:34:12;48.33;;;28.25;;
75941;SDS011;64622;46.220;19.878;2022-12-24T04:36:39;42.70;;;25.47;;
75941;SDS011;64622;46.220;19.878;2022-12-24T04:39:05;44.72;;;27.20;;
75941;SDS011;64622;46.220;19.878;2022-12-24T04:41:33;44.08;;;24.77;;
75941;SDS011;64622;46.220;19.878;2022-12-24T04:43:59;48.55;;;27.25;;
75941;SDS011;64622;46.220;19.878;2022-12-24T04:46:26;45.72;;;27.13;;
75941;SDS011;64622;46.220;19.878;2022-12-24T04:48:58;44.27;;;27.63;;
75941;SDS011;64622;46.220;19.878;2022-12-24T04:51:25;43.63;;;26.15;;
75941;SDS011;64622;46.220;19.878;2022-12-24T04:53:53;45.72;;;26.17;;
75941;SDS011;64622;46.220;19.878;2022-12-24T04:56:25;44.13;;;25.67;;
75941;SDS011;64622;46.220;19.878;2022-12-24T04:58:54;40.15;;;25.12;;
75941;SDS011;64622;46.220;19.878;2022-12-24T05:01:25;38.77;;;23.07;;
75941;SDS011;64622;46.220;19.878;2022-12-24T05:03:54;38.13;;;21.52;;
75941;SDS011;64622;46.220;19.878;2022-12-24T05:06:22;34.50;;;20.70;;
75941;SDS011;64622;46.220;19.878;2022-12-24T05:08:55;36.38;;;22.75;;
75941;SDS011;64622;46.220;19.878;2022-12-24T05:11:23;37.95;;;21.98;;
75941;SDS011;64622;46.220;19.878;2022-12-24T05:13:50;38.43;;;22.53;;
75941;SDS011;64622;46.220;19.878;2022-12-24T05:16:18;36.92;;;20.67;;
75941;SDS011;64622;46.220;19.878;2022-12-24T05:18:46;36.25;;;22.23;;
75941;SDS011;64622;46.220;19.878;2022-12-24T05:21:14;37.42;;;22.50;;
75941;SDS011;64622;46.220;19.878;2022-12-24T05:23:42;38.80;;;21.20;;
75941;SDS011;64622;46.220;19.878;2022-12-24T05:29:01;41.05;;;21.40;;
75941;SDS011;64622;46.220;19.878;2022-12-24T05:31:30;34.40;;;20.45;;
75941;SDS011;64622;46.220;19.878;2022-12-24T05:33:58;34.47;;;20.00;;
75941;SDS011;64622;46.220;19.878;2022-12-24T05:36:26;36.85;;;20.50;;
75941;SDS011;64622;46.220;19.878;2022-12-24T05:38:53;32.47;;;20.97;;
75941;SDS011;64622;46.220;19.878;2022-12-24T05:41:19;32.47;;;20.95;;
75941;SDS011;64622;46.220;19.878;2022-12-24T05:43:46;37.10;;;22.30;;
75941;SDS011;64622;46.220;19.878;2022-12-24T05:46:14;38.00;;;22.23;;
75941;SDS011;64622;46.220;19.878;2022-12-24T05:48:44;39.40;;;20.37;;
75941;SDS011;64622;46.220;19.878;2022-12-24T05:51:12;38.60;;;20.40;;
75941;SDS011;64622;46.220;19.878;2022-12-24T05:53:40;35.80;;;21.23;;
75941;SDS011;64622;46.220;19.878;2022-12-24T05:56:08;40.63;;;21.70;;
75941;SDS011;64622;46.220;19.878;2022-12-24T05:58:36;32.97;;;19.62;;
75941;SDS011;64622;46.220;19.878;2022-12-24T06:01:05;34.38;;;19.33;;
75941;SDS011;64622;46.220;19.878;2022-12-24T06:03:32;37.17;;;17.80;;
75941;SDS011;64622;46.220;19.878;2022-12-24T06:06:04;35.92;;;19.35;;
75941;SDS011;64622;46.220;19.878;2022-12-24T06:08:35;41.95;;;22.27;;
75941;SDS011;64622;46.220;19.878;2022-12-24T06:11:04;39.45;;;22.48;;
75941;SDS011;64622;46.220;19.878;2022-12-24T06:13:32;41.25;;;21.30;;
75941;SDS011;64622;46.220;19.878;2022-12-24T06:16:01;40.80;;;22.67;;
75941;SDS011;64622;46.220;19.878;2022-12-24T06:18:29;38.55;;;18.27;;
75941;SDS011;64622;46.220;19.878;2022-12-24T06:20:58;38.55;;;20.75;;
75941;SDS011;64622;46.220;19.878;2022-12-24T06:23:27;37.25;;;21.52;;
75941;SDS011;64622;46.220;19.878;2022-12-24T06:25:55;31.92;;;18.05;;
75941;SDS011;64622;46.220;19.878;2022-12-24T06:28:23;38.83;;;19.47;;
75941;SDS011;64622;46.220;19.878;2022-12-24T06:30:50;35.88;;;20.42;;
75941;SDS011;64622;46.220;19.878;2022-12-24T06:33:17;32.50;;;17.70;;
75941;SDS011;64622;46.220;19.878;2022-12-24T06:35:45;31.58;;;18.62;;
75941;SDS011;64622;46.220;19.878;2022-12-24T06:38:13;37.85;;;21.20;;
75941;SDS011;64622;46.220;19.878;2022-12-24T06:40:42;34.20;;;19.53;;
75941;SDS011;64622;46.220;19.878;2022-12-24T06:43:10;37.70;;;20.48;;
75941;SDS011;64622;46.220;19.878;2022-12-24T06:45:37;34.03;;;18.98;;
75941;SDS011;64622;46.220;19.878;2022-12-24T06:48:04;33.13;;;18.60;;
75941;SDS011;64622;46.220;19.878;2022-12-24T06:50:32;39.25;;;20.98;;
75941;SDS011;64622;46.220;19.878;2022-12-24T06:52:59;36.63;;;21.27;;
75941;SDS011;64622;46.220;19.878;2022-12-24T06:55:26;175.25;;;96.45;;
75941;SDS011;64622;46.220;19.878;2022-12-24T06:57:52;50.83;;;26.55;;
75941;SDS011;64622;46.220;19.878;2022-12-24T07:00:22;36.80;;;18.92;;
75941;SDS011;64622;46.220;19.878;2022-12-24T07:02:49;35.67;;;18.27;;
75941;SDS011;64622;46.220;19.878;2022-12-24T07:05:15;32.70;;;19.53;;
75941;SDS011;64622;46.220;19.878;2022-12-24T07:07:43;34.22;;;18.95;;
75941;SDS011;64622;46.220;19.878;2022-12-24T07:10:12;133.45;;;74.18;;
75941;SDS011;64622;46.220;19.878;2022-12-24T07:12:41;37.45;;;20.62;;
75941;SDS011;64622;46.220;19.878;2022-12-24T07:15:09;37.50;;;19.65;;
75941;SDS011;64622;46.220;19.878;2022-12-24T07:17:36;52.27;;;32.13;;
75941;SDS011;64622;46.220;19.878;2022-12-24T07:20:04;45.80;;;29.50;;
75941;SDS011;64622;46.220;19.878;2022-12-24T07:22:33;38.65;;;21.65;;
75941;SDS011;64622;46.220;19.878;2022-12-24T07:24:59;36.08;;;21.45;;
75941;SDS011;64622;46.220;19.878;2022-12-24T07:27:26;35.65;;;19.48;;
75941;SDS011;64622;46.220;19.878;2022-12-24T07:29:56;31.57;;;17.87;;
75941;SDS011;64622;46.220;19.878;2022-12-24T07:32:22;29.92;;;17.15;;
75941;SDS011;64622;46.220;19.878;2022-12-24T07:34:49;32.22;;;16.10;;
75941;SDS011;64622;46.220;19.878;2022-12-24T07:37:16;34.13;;;19.35;;
75941;SDS011;64622;46.220;19.878;2022-12-24T07:39:43;30.33;;;17.98;;
75941;SDS011;64622;46.220;19.878;2022-12-24T07:42:10;31.63;;;17.90;;
75941;SDS011;64622;46.220;19.878;2022-12-24T07:44:36;23.17;;;12.35;;
75941;SDS011;64622;46.220;19.878;2022-12-24T07:47:03;31.55;;;18.00;;
75941;SDS011;64622;46.220;19.878;2022-12-24T07:49:30;36.20;;;19.62;;
75941;SDS011;64622;46.220;19.878;2022-12-24T07:51:56;31.60;;;17.75;;
75941;SDS011;64622;46.220;19.878;2022-12-24T07:54:23;31.13;;;18.03;;
75941;SDS011;64622;46.220;19.878;2022-12-24T07:56:49;30.20;;;16.87;;
75941;SDS011;64622;46.220;19.878;2022-12-24T07:59:16;31.15;;;20.15;;
75941;SDS011;64622;46.220;19.878;2022-12-24T08:01:43;29.85;;;15.43;;
75941;SDS011;64622;46.220;19.878;2022-12-24T08:04:11;30.88;;;17.12;;
75941;SDS011;64622;46.220;19.878;2022-12-24T08:06:37;31.70;;;16.73;;
75941;SDS011;64622;46.220;19.878;2022-12-24T08:09:04;29.87;;;17.35;;
75941;SDS011;64622;46.220;19.878;2022-12-24T08:11:30;30.48;;;18.67;;
75941;SDS011;64622;46.220;19.878;2022-12-24T08:13:57;32.72;;;19.40;;
75941;SDS011;64622;46.220;19.878;2022-12-24T08:16:23;30.52;;;16.83;;
75941;SDS011;64622;46.220;19.878;2022-12-24T08:18:50;27.30;;;16.33;;
75941;SDS011;64622;46.220;19.878;2022-12-24T08:21:17;30.90;;;16.45;;
75941;SDS011;64622;46.220;19.878;2022-12-24T08:23:45;28.20;;;16.27;;
75941;SDS011;64622;46.220;19.878;2022-12-24T08:26:12;27.23;;;15.52;;
75941;SDS011;64622;46.220;19.878;2022-12-24T08:28:38;24.83;;;13.23;;
75941;SDS011;64622;46.220;19.878;2022-12-24T08:31:06;28.13;;;15.17;;
75941;SDS011;64622;46.220;19.878;2022-12-24T08:33:34;23.98;;;14.57;;
75941;SDS011;64622;46.220;19.878;2022-12-24T08:36:00;25.77;;;15.10;;
75941;SDS011;64622;46.220;19.878;2022-12-24T08:38:27;20.02;;;10.40;;
75941;SDS011;64622;46.220;19.878;2022-12-24T08:40:55;19.08;;;10.95;;
75941;SDS011;64622;46.220;19.878;2022-12-24T08:43:21;19.43;;;9.63;;
75941;SDS011;64622;46.220;19.878;2022-12-24T08:45:50;21.58;;;11.00;;
75941;SDS011;64622;46.220;19.878;2022-12-24T08:48:17;20.48;;;9.70;;
75941;SDS011;64622;46.220;19.878;2022-12-24T08:50:44;20.20;;;10.57;;
75941;SDS011;64622;46.220;19.878;2022-12-24T08:53:11;17.30;;;9.90;;
75941;SDS011;64622;46.220;19.878;2022-12-24T08:55:42;17.50;;;9.40;;
75941;SDS011;64622;46.220;19.878;2022-12-24T08:58:09;17.67;;;10.02;;
75941;SDS011;64622;46.220;19.878;2022-12-24T09:00:36;84.90;;;44.53;;
75941;SDS011;64622;46.220;19.878;2022-12-24T09:03:03;33.80;;;19.50;;
75941;SDS011;64622;46.220;19.878;2022-12-24T09:05:30;25.17;;;13.10;;
75941;SDS011;64622;46.220;19.878;2022-12-24T09:07:56;17.10;;;8.93;;
75941;SDS011;64622;46.220;19.878;2022-12-24T09:10:24;39.20;;;26.40;;
75941;SDS011;64622;46.220;19.878;2022-12-24T09:12:51;21.15;;;12.77;;
75941;SDS011;64622;46.220;19.878;2022-12-24T09:15:18;32.47;;;17.50;;
75941;SDS011;64622;46.220;19.878;2022-12-24T09:17:45;21.95;;;13.62;;
75941;SDS011;64622;46.220;19.878;2022-12-24T09:20:14;29.40;;;18.87;;
75941;SDS011;64622;46.220;19.878;2022-12-24T09:22:41;22.83;;;15.15;;
75941;SDS011;64622;46.220;19.878;2022-12-24T09:25:08;18.80;;;10.90;;
75941;SDS011;64622;46.220;19.878;2022-12-24T09:27:35;29.37;;;20.90;;
75941;SDS011;64622;46.220;19.878;2022-12-24T09:30:06;34.50;;;22.13;;
75941;SDS011;64622;46.220;19.878;2022-12-24T09:32:36;15.93;;;9.13;;
75941;SDS011;64622;46.220;19.878;2022-12-24T09:35:02;16.05;;;9.18;;
75941;SDS011;64622;46.220;19.878;2022-12-24T09:37:29;19.95;;;11.20;;
75941;SDS011;64622;46.220;19.878;2022-12-24T09:39:56;54.38;;;32.88;;
75941;SDS011;64622;46.220;19.878;2022-12-24T09:42:39;59.13;;;41.17;;
75941;SDS011;64622;46.220;19.878;2022-12-24T09:45:15;14.57;;;7.90;;
75941;SDS011;64622;46.220;19.878;2022-12-24T09:47:49;16.10;;;7.78;;
75941;SDS011;64622;46.220;19.878;2022-12-24T09:52:58;16.85;;;9.90;;
75941;SDS011;64622;46.220;19.878;2022-12-24T09:55:32;12.20;;;7.18;;
75941;SDS011;64622;46.220;19.878;2022-12-24T09:58:03;39.70;;;26.60;;
75941;SDS011;64622;46.220;19.878;2022-12-24T10:00:32;18.20;;;10.93;;
75941;SDS011;64622;46.220;19.878;2022-12-24T10:03:15;12.85;;;6.12;;
75941;SDS011;64622;46.220;19.878;2022-12-24T10:11:18;10.33;;;4.80;;
75941;SDS011;64622;46.220;19.878;2022-12-24T10:14:11;8.70;;;3.65;;
75941;SDS011;64622;46.220;19.878;2022-12-24T10:19:22;9.80;;;4.45;;
75941;SDS011;64622;46.220;19.878;2022-12-24T10:22:14;15.75;;;8.63;;
75941;SDS011;64622;46.220;19.878;2022-12-24T10:27:39;45.67;;;28.80;;
75941;SDS011;64622;46.220;19.878;2022-12-24T10:30:16;37.42;;;22.87;;
75941;SDS011;64622;46.220;19.878;2022-12-24T10:32:49;71.82;;;38.55;;
75941;SDS011;64622;46.220;19.878;2022-12-24T10:35:22;50.33;;;25.50;;
75941;SDS011;64622;46.220;19.878;2022-12-24T10:37:54;48.63;;;26.93;;
75941;SDS011;64622;46.220;19.878;2022-12-24T10:40:31;30.70;;;18.67;;
75941;SDS011;64622;46.220;19.878;2022-12-24T10:43:16;20.17;;;12.57;;
75941;SDS011;64622;46.220;19.878;2022-12-24T10:45:46;23.48;;;15.00;;
75941;SDS011;64622;46.220;19.878;2022-12-24T10:48:19;10.90;;;5.00;;
75941;SDS011;64622;46.220;19.878;2022-12-24T10:50:53;11.07;;;5.80;;
75941;SDS011;64622;46.220;19.878;2022-12-24T10:53:31;25.42;;;18.27;;
75941;SDS011;64622;46.220;19.878;2022-12-24T10:56:01;14.73;;;9.07;;
75941;SDS011;64622;46.220;19.878;2022-12-24T10:58:33;38.20;;;25.98;;
75941;SDS011;64622;46.220;19.878;2022-12-24T11:01:01;32.08;;;19.55;;
75941;SDS011;64622;46.220;19.878;2022-12-24T11:03:29;29.77;;;16.10;;
75941;SDS011;64622;46.220;19.878;2022-12-24T11:05:59;40.10;;;22.25;;
75941;SDS011;64622;46.220;19.878;2022-12-24T11:08:31;38.30;;;25.12;;
75941;SDS011;64622;46.220;19.878;2022-12-24T11:13:32;22.55;;;16.85;;
75941;SDS011;64622;46.220;19.878;2022-12-24T11:16:03;9.70;;;4.63;;
75941;SDS011;64622;46.220;19.878;2022-12-24T11:18:43;16.45;;;11.63;;
75941;SDS011;64622;46.220;19.878;2022-12-24T11:21:57;23.70;;;19.70;;
75941;SDS011;64622;46.220;19.878;2022-12-24T11:26:32;10.48;;;4.82;;
75941;SDS011;64622;46.220;19.878;2022-12-24T11:31:48;12.15;;;6.00;;
75941;SDS011;64622;46.220;19.878;2022-12-24T11:36:47;8.70;;;3.70;;
75941;SDS011;64622;46.220;19.878;2022-12-24T11:39:16;9.18;;;2.83;;
75941;SDS011;64622;46.220;19.878;2022-12-24T11:41:45;8.70;;;3.00;;
75941;SDS011;64622;46.220;19.878;2022-12-24T11:44:12;11.40;;;4.68;;
75941;SDS011;64622;46.220;19.878;2022-12-24T11:46:41;35.10;;;19.02;;
75941;SDS011;64622;46.220;19.878;2022-12-24T11:49:22;49.95;;;24.40;;
75941;SDS011;64622;46.220;19.878;2022-12-24T11:52:12;84.20;;;43.20;;
75941;SDS011;64622;46.220;19.878;2022-12-24T11:57:46;29.67;;;14.87;;
75941;SDS011;64622;46.220;19.878;2022-12-24T12:00:35;73.05;;;34.53;;
75941;SDS011;64622;46.220;19.878;2022-12-24T12:03:05;27.75;;;13.90;;
75941;SDS011;64622;46.220;19.878;2022-12-24T12:05:49;37.03;;;21.10;;
75941;SDS011;64622;46.220;19.878;2022-12-24T12:08:17;17.10;;;8.87;;
75941;SDS011;64622;46.220;19.878;2022-12-24T12:10:46;19.05;;;10.02;;
75941;SDS011;64622;46.220;19.878;2022-12-24T12:13:22;55.25;;;31.05;;
75941;SDS011;64622;46.220;19.878;2022-12-24T12:16:06;15.57;;;8.63;;
75941;SDS011;64622;46.220;19.878;2022-12-24T12:19:24;21.17;;;12.73;;
75941;SDS011;64622;46.220;19.878;2022-12-24T12:21:56;12.13;;;6.23;;
75941;SDS011;64622;46.220;19.878;2022-12-24T12:24:30;29.73;;;17.15;;
75941;SDS011;64622;46.220;19.878;2022-12-24T12:30:00;45.58;;;22.25;;
75941;SDS011;64622;46.220;19.878;2022-12-24T12:35:05;30.67;;;15.43;;
75941;SDS011;64622;46.220;19.878;2022-12-24T12:37:47;56.78;;;27.23;;
75941;SDS011;64622;46.220;19.878;2022-12-24T12:40:21;21.70;;;12.00;;
75941;SDS011;64622;46.220;19.878;2022-12-24T12:43:50;13.90;;;6.72;;
75941;SDS011;64622;46.220;19.878;2022-12-24T12:51:53;17.27;;;9.75;;
75941;SDS011;64622;46.220;19.878;2022-12-24T12:57:16;19.27;;;10.55;;
75941;SDS011;64622;46.220;19.878;2022-12-24T13:02:51;12.87;;;7.10;;
75941;SDS011;64622;46.220;19.878;2022-12-24T13:20:09;11.38;;;8.15;;
75941;SDS011;64622;46.220;19.878;2022-12-24T13:23:09;15.13;;;9.23;;
75941;SDS011;64622;46.220;19.878;2022-12-24T13:25:40;24.20;;;19.27;;
75941;SDS011;64622;46.220;19.878;2022-12-24T13:31:33;8.73;;;3.63;;
75941;SDS011;64622;46.220;19.878;2022-12-24T13:36:10;24.50;;;18.00;;
75941;SDS011;64622;46.220;19.878;2022-12-24T13:38:40;10.45;;;6.47;;
75941;SDS011;64622;46.220;19.878;2022-12-24T13:52:22;17.75;;;11.07;;
75941;SDS011;64622;46.220;19.878;2022-12-24T13:57:34;34.10;;;18.73;;
75941;SDS011;64622;46.220;19.878;2022-12-24T14:02:50;18.87;;;7.10;;
75941;SDS011;64622;46.220;19.878;2022-12-24T14:05:36;32.08;;;17.87;;
75941;SDS011;64622;46.220;19.878;2022-12-24T14:08:10;35.05;;;21.08;;
75941;SDS011;64622;46.220;19.878;2022-12-24T14:10:39;20.83;;;10.83;;
75941;SDS011;64622;46.220;19.878;2022-12-24T14:18:31;55.85;;;28.05;;
75941;SDS011;64622;46.220;19.878;2022-12-24T14:21:03;96.32;;;51.70;;
75941;SDS011;64622;46.220;19.878;2022-12-24T14:26:08;80.25;;;38.63;;
75941;SDS011;64622;46.220;19.878;2022-12-24T14:28:40;117.45;;;60.22;;
75941;SDS011;64622;46.220;19.878;2022-12-24T14:31:14;96.85;;;47.65;;
75941;SDS011;64622;46.220;19.878;2022-12-24T14:33:43;208.98;;;105.82;;
75941;SDS011;64622;46.220;19.878;2022-12-24T14:36:11;103.47;;;54.90;;
75941;SDS011;64622;46.220;19.878;2022-12-24T14:38:41;62.72;;;32.97;;
75941;SDS011;64622;46.220;19.878;2022-12-24T14:52:44;59.65;;;39.08;;
75941;SDS011;64622;46.220;19.878;2022-12-24T14:55:31;76.57;;;45.12;;
75941;SDS011;64622;46.220;19.878;2022-12-24T14:58:45;15.50;;;7.68;;
75941;SDS011;64622;46.220;19.878;2022-12-24T15:00:59;14.48;;;6.68;;
75941;SDS011;64622;46.220;19.878;2022-12-24T15:03:29;19.27;;;10.17;;
75941;SDS011;64622;46.220;19.878;2022-12-24T15:06:04;17.35;;;9.82;;
75941;SDS011;64622;46.220;19.878;2022-12-24T15:08:37;17.92;;;8.18;;
75941;SDS011;64622;46.220;19.878;2022-12-24T15:11:07;14.98;;;7.47;;
75941;SDS011;64622;46.220;19.878;2022-12-24T15:13:36;9.02;;;3.40;;
75941;SDS011;64622;46.220;19.878;2022-12-24T15:16:12;8.83;;;3.00;;
75941;SDS011;64622;46.220;19.878;2022-12-24T15:18:48;9.65;;;3.20;;
75941;SDS011;64622;46.220;19.878;2022-12-24T15:21:19;92.53;;;53.50;;
75941;SDS011;64622;46.220;19.878;2022-12-24T15:23:51;33.42;;;18.50;;
75941;SDS011;64622;46.220;19.878;2022-12-24T15:28:50;86.83;;;46.43;;
75941;SDS011;64622;46.220;19.878;2022-12-24T15:31:18;217.93;;;120.45;;
75941;SDS011;64622;46.220;19.878;2022-12-24T15:33:49;28.20;;;15.07;;
75941;SDS011;64622;46.220;19.878;2022-12-24T15:36:22;49.50;;;28.55;;
75941;SDS011;64622;46.220;19.878;2022-12-24T15:39:03;47.17;;;32.80;;
75941;SDS011;64622;46.220;19.878;2022-12-24T15:41:39;64.17;;;51.37;;
75941;SDS011;64622;46.220;19.878;2022-12-24T15:44:33;21.80;;;18.48;;
75941;SDS011;64622;46.220;19.878;2022-12-24T15:47:03;25.95;;;19.95;;
75941;SDS011;64622;46.220;19.878;2022-12-24T15:49:33;11.25;;;6.30;;
75941;SDS011;64622;46.220;19.878;2022-12-24T15:52:04;13.68;;;8.68;;
75941;SDS011;64622;46.220;19.878;2022-12-24T15:54:34;14.43;;;6.37;;
75941;SDS011;64622;46.220;19.878;2022-12-24T15:57:22;25.12;;;14.87;;
75941;SDS011;64622;46.220;19.878;2022-12-24T15:59:52;28.40;;;12.40;;
75941;SDS011;64622;46.220;19.878;2022-12-24T16:02:26;21.85;;;9.35;;
75941;SDS011;64622;46.220;19.878;2022-12-24T16:08:17;26.03;;;12.03;;
75941;SDS011;64622;46.220;19.878;2022-12-24T16:10:53;10.73;;;4.43;;
75941;SDS011;64622;46.220;19.878;2022-12-24T16:13:34;8.20;;;2.92;;
75941;SDS011;64622;46.220;19.878;2022-12-24T16:16:07;7.40;;;2.87;;
75941;SDS011;64622;46.220;19.878;2022-12-24T16:18:41;8.98;;;3.33;;
75941;SDS011;64622;46.220;19.878;2022-12-24T16:21:27;10.90;;;3.00;;
75941;SDS011;64622;46.220;19.878;2022-12-24T16:24:02;8.90;;;2.42;;
75941;SDS011;64622;46.220;19.878;2022-12-24T16:26:33;10.25;;;3.10;;
75941;SDS011;64622;46.220;19.878;2022-12-24T16:29:00;7.65;;;2.40;;
75941;SDS011;64622;46.220;19.878;2022-12-24T16:31:35;9.80;;;2.50;;
75941;SDS011;64622;46.220;19.878;2022-12-24T16:34:04;8.10;;;2.13;;
75941;SDS011;64622;46.220;19.878;2022-12-24T16:36:31;10.00;;;2.17;;
75941;SDS011;64622;46.220;19.878;2022-12-24T16:38:58;7.43;;;2.20;;
75941;SDS011;64622;46.220;19.878;2022-12-24T16:41:43;8.48;;;2.28;;
75941;SDS011;64622;46.220;19.878;2022-12-24T16:44:28;39.85;;;17.42;;